< < Back
Terminal Aerodrome Forecast


Current Version              Previous Versions:   1  2  3  4  5  6  7  8  9  

Terminal Aerodrome Forecast

769
FTUS42 KJAX 182300
TAFGNV
TAF
KGNV 182331Z 1900/1924 00000KT P6SM FEW100 BKN200
     FM190900 00000KT 5SM BR FEW100 BKN200
     FM191500 VRB04KT P6SM FEW050 BKN200=

Latest METAR

827
SAUS70 KWBC 190500 RRT
MTRGNV
METAR KGNV 190653Z AUTO 00000KT 10SM CLR 09/07 A3013 RMK AO2 SLP203
T00940072


USA.gov is the U.S. government's official web portal to all federal, state and local government web resources and services.